createdAt,value
2022-09-20T00:01:42.540Z,88.58
2022-09-20T00:04:10.439Z,88.84
2022-09-20T00:06:37.287Z,88.88
2022-09-20T00:09:05.530Z,89.13
2022-09-20T00:11:34.886Z,89.12
2022-09-20T00:14:04.171Z,89.47
2022-09-20T00:16:34.249Z,89.55
2022-09-20T00:19:06.844Z,89.66
2022-09-20T00:21:37.832Z,89.78
2022-09-20T00:24:06.082Z,89.72
2022-09-20T00:26:33.032Z,89.63
2022-09-20T00:29:00.344Z,89.86
2022-09-20T00:31:27.362Z,89.99
2022-09-20T00:34:13.946Z,90.07
2022-09-20T00:36:41.215Z,89.96
2022-09-20T00:39:10.956Z,89.95
2022-09-20T00:41:38.161Z,89.99
2022-09-20T00:44:47.846Z,89.87
2022-09-20T00:47:24.472Z,89.85
2022-09-20T00:49:56.553Z,89.79
2022-09-20T00:52:24.158Z,89.81
2022-09-20T00:54:51.198Z,89.64
2022-09-20T00:57:18.143Z,89.69
2022-09-20T00:59:49.658Z,89.80
2022-09-20T01:02:29.264Z,89.78
2022-09-20T01:04:57.798Z,89.65
2022-09-20T01:07:26.318Z,89.68
2022-09-20T01:09:53.314Z,89.66
2022-09-20T01:12:25.995Z,89.36
2022-09-20T01:14:54.107Z,89.32
2022-09-20T01:17:24.396Z,89.12
2022-09-20T01:20:17.601Z,89.50
2022-09-20T01:23:12.658Z,89.30
2022-09-20T01:26:05.311Z,89.63
2022-09-20T01:28:32.816Z,89.77
2022-09-20T01:31:20.938Z,89.83
2022-09-20T01:33:54.195Z,90.01
2022-09-20T01:36:31.849Z,90.03
2022-09-20T01:39:23.159Z,90.11
2022-09-20T01:41:59.658Z,90.00
2022-09-20T01:44:50.819Z,90.22
2022-09-20T01:47:23.043Z,90.11
2022-09-20T01:50:02.280Z,90.18
2022-09-20T01:52:40.777Z,89.97
2022-09-20T01:55:35.319Z,90.05
2022-09-20T01:58:41.484Z,89.94
2022-09-20T02:01:38.913Z,89.69
2022-09-20T02:04:17.927Z,89.80
2022-09-20T02:07:00.160Z,89.86
2022-09-20T02:09:44.888Z,89.99
2022-09-20T02:12:33.508Z,90.00
2022-09-20T02:15:29.832Z,90.15
2022-09-20T02:18:17.961Z,90.22
2022-09-20T02:21:03.302Z,90.19
2022-09-20T02:23:45.032Z,90.35
2022-09-20T02:26:29.804Z,90.23
2022-09-20T02:29:24.863Z,90.18
2022-09-20T02:32:19.082Z,89.87
2022-09-20T02:35:06.883Z,90.05
2022-09-20T02:37:36.439Z,89.96
2022-09-20T02:40:25.721Z,90.01
2022-09-20T02:43:04.176Z,89.99
2022-09-20T02:46:02.071Z,90.10
2022-09-20T02:48:42.872Z,90.10
2022-09-20T02:51:25.533Z,90.05
2022-09-20T02:54:03.735Z,90.15
2022-09-20T02:56:58.738Z,90.21
2022-09-20T02:59:35.512Z,90.14
2022-09-20T03:02:09.444Z,90.11
2022-09-20T03:04:53.084Z,90.27
2022-09-20T03:08:12.454Z,90.36
2022-09-20T03:10:50.447Z,90.46
2022-09-20T03:13:35.575Z,90.49
2022-09-20T03:16:05.058Z,90.44
2022-09-20T03:18:57.882Z,90.54
2022-09-20T03:21:44.849Z,91.01
2022-09-20T03:24:26.032Z,90.95
2022-09-20T03:27:04.851Z,90.97
2022-09-20T03:29:48.558Z,90.95
2022-09-20T03:32:53.225Z,90.96
2022-09-20T03:35:33.222Z,91.00
2022-09-20T03:38:35.143Z,91.29
2022-09-20T03:41:26.665Z,91.38
2022-09-20T03:43:56.470Z,91.40
2022-09-20T03:46:28.604Z,91.46
2022-09-20T03:49:07.073Z,91.30
2022-09-20T03:51:39.739Z,91.41
2022-09-20T03:54:31.332Z,91.31
2022-09-20T03:57:18.286Z,91.44
2022-09-20T04:00:16.693Z,91.44
2022-09-20T04:03:01.572Z,91.38
2022-09-20T04:05:48.859Z,91.47
2022-09-20T04:08:38.069Z,91.25
2022-09-20T04:11:20.423Z,91.44
2022-09-20T04:14:27.955Z,91.31
2022-09-20T04:17:30.963Z,91.21
2022-09-20T04:20:15.338Z,91.20
2022-09-20T04:22:44.872Z,90.99
2022-09-20T04:25:20.530Z,91.10
2022-09-20T04:27:53.572Z,91.18
2022-09-20T04:30:30.443Z,91.08
2022-09-20T04:33:25.379Z,91.33
2022-09-20T04:36:28.947Z,91.22
2022-09-20T04:39:14.853Z,91.16
2022-09-20T04:42:03.199Z,91.21
2022-09-20T04:44:53.122Z,90.96
2022-09-20T04:48:09.138Z,90.98
2022-09-20T04:51:12.331Z,91.05
2022-09-20T04:54:08.573Z,91.25
2022-09-20T04:57:09.284Z,91.23
2022-09-20T04:59:55.407Z,91.32
2022-09-20T05:02:50.658Z,91.23
2022-09-20T05:05:35.924Z,91.36
2022-09-20T05:08:41.023Z,91.59
2022-09-20T05:11:47.408Z,91.50
2022-09-20T05:14:52.594Z,91.69
2022-09-20T05:17:28.027Z,91.68
2022-09-20T05:20:02.697Z,91.55
2022-09-20T05:22:44.136Z,91.51
2022-09-20T05:25:59.769Z,91.38
2022-09-20T05:28:32.359Z,91.27
2022-09-20T05:31:07.078Z,91.20
2022-09-20T05:34:08.145Z,91.15
2022-09-20T05:36:55.452Z,90.93
2022-09-20T05:39:22.255Z,90.98
2022-09-20T05:42:13.112Z,91.03
2022-09-20T05:44:48.762Z,91.07
2022-09-20T05:47:22.109Z,91.19
2022-09-20T05:49:58.065Z,91.16
2022-09-20T05:52:55.369Z,91.11
2022-09-20T05:55:46.022Z,91.15
2022-09-20T05:58:45.222Z,91.05
2022-09-20T06:01:41.311Z,91.38
2022-09-20T06:04:24.123Z,91.39
2022-09-20T06:07:02.840Z,91.66
2022-09-20T06:09:41.512Z,91.52
2022-09-20T06:12:41.276Z,91.62
2022-09-20T06:15:19.960Z,91.57
2022-09-20T06:18:27.146Z,91.76
2022-09-20T06:21:15.639Z,92.07
2022-09-20T06:23:42.653Z,92.09
2022-09-20T06:26:19.998Z,92.33
2022-09-20T06:29:00.673Z,92.42
2022-09-20T06:31:27.919Z,92.54
2022-09-20T06:34:15.938Z,92.54
2022-09-20T06:37:13.236Z,92.62
2022-09-20T06:40:13.015Z,92.74
2022-09-20T06:42:39.912Z,92.67
2022-09-20T06:45:07.192Z,93.01
2022-09-20T06:47:38.565Z,92.75
2022-09-20T06:50:06.493Z,92.71
2022-09-20T06:52:34.715Z,92.66
2022-09-20T06:55:09.117Z,92.47
2022-09-20T06:57:40.756Z,92.51
2022-09-20T07:00:11.535Z,92.71
2022-09-20T07:02:38.724Z,92.74
2022-09-20T07:05:07.616Z,92.87
2022-09-20T07:07:34.728Z,92.97
2022-09-20T07:10:01.707Z,92.93
2022-09-20T07:12:31.439Z,92.85
2022-09-20T07:14:58.266Z,92.71
2022-09-20T07:17:25.573Z,92.38
2022-09-20T07:19:52.474Z,92.18
2022-09-20T07:22:19.413Z,92.12
2022-09-20T07:24:46.644Z,92.57
2022-09-20T07:27:13.836Z,92.28
2022-09-20T07:29:41.291Z,91.76
2022-09-20T07:32:08.702Z,90.60
2022-09-20T07:34:35.689Z,89.91
2022-09-20T07:37:02.779Z,89.62
2022-09-20T07:39:29.630Z,89.25
2022-09-20T07:41:56.787Z,88.99
2022-09-20T07:44:28.002Z,88.94
2022-09-20T07:46:58.138Z,88.96
2022-09-20T07:49:26.342Z,89.17
2022-09-20T07:51:53.979Z,89.32
2022-09-20T07:54:21.316Z,89.37
2022-09-20T07:56:48.699Z,89.10
2022-09-20T07:59:15.684Z,88.59
2022-09-20T08:01:42.935Z,88.50
2022-09-20T08:04:10.651Z,88.01
2022-09-20T08:06:42.924Z,87.26
2022-09-20T08:09:11.866Z,86.46
2022-09-20T08:11:40.207Z,86.14
2022-09-20T08:14:16.145Z,85.84
2022-09-20T08:16:48.350Z,86.13
2022-09-20T08:19:21.051Z,86.18
2022-09-20T08:21:48.574Z,86.45
2022-09-20T08:24:16.551Z,86.16
2022-09-20T08:26:43.927Z,85.88
2022-09-20T08:29:11.758Z,86.13
2022-09-20T08:31:42.507Z,86.41
2022-09-20T08:34:12.246Z,86.13
2022-09-20T08:36:42.169Z,85.77
2022-09-20T08:42:33.882Z,84.37
2022-09-20T08:45:34.614Z,84.38
2022-09-20T08:48:06.419Z,83.83
2022-09-20T08:50:37.063Z,83.86
2022-09-20T08:53:05.166Z,83.44
2022-09-20T08:55:40.160Z,83.07
2022-09-20T08:58:12.219Z,82.84
2022-09-20T09:00:47.080Z,83.07
2022-09-20T09:03:17.244Z,82.25
2022-09-20T09:05:50.838Z,83.26
2022-09-20T09:08:21.975Z,83.12
2022-09-20T09:10:54.312Z,82.24
2022-09-20T09:13:27.024Z,81.62
2022-09-20T09:16:11.653Z,78.87
2022-09-20T09:18:41.909Z,78.34
2022-09-20T09:21:17.081Z,78.28
2022-09-20T09:24:01.300Z,77.88
2022-09-20T09:26:29.645Z,79.19
2022-09-20T09:29:08.560Z,77.72
2022-09-20T09:31:35.790Z,76.25
2022-09-20T09:34:03.065Z,75.32
2022-09-20T09:36:29.973Z,76.01
2022-09-20T09:39:16.768Z,76.18
2022-09-20T09:41:44.603Z,76.14
2022-09-20T09:44:21.976Z,76.05
2022-09-20T09:46:50.564Z,76.12
2022-09-20T09:49:23.036Z,75.96
2022-09-20T09:51:56.132Z,73.67
2022-09-20T09:54:26.154Z,72.90
2022-09-20T09:57:12.049Z,73.99
2022-09-20T09:59:40.344Z,74.57
2022-09-20T10:02:19.563Z,73.36
2022-09-20T10:05:03.328Z,74.78
2022-09-20T10:07:55.207Z,75.73
2022-09-20T10:11:00.993Z,75.76
2022-09-20T10:14:03.771Z,75.05
2022-09-20T10:16:55.572Z,76.82
2022-09-20T10:19:41.379Z,76.57
2022-09-20T10:22:34.236Z,76.11
2022-09-20T10:25:19.683Z,75.78
2022-09-20T10:28:08.980Z,74.98
2022-09-20T10:31:06.716Z,76.26
2022-09-20T10:33:44.594Z,76.62
2022-09-20T10:36:16.514Z,76.08
2022-09-20T10:39:09.101Z,75.67
2022-09-20T10:42:05.047Z,74.26
2022-09-20T10:44:38.271Z,72.76
2022-09-20T10:47:15.445Z,70.56
2022-09-20T10:49:44.336Z,70.20
2022-09-20T10:52:40.388Z,71.32
2022-09-20T10:55:52.181Z,69.03
2022-09-20T10:58:49.259Z,69.73
2022-09-20T11:01:46.506Z,67.48
2022-09-20T11:04:25.275Z,69.63
2022-09-20T11:07:39.971Z,67.92
2022-09-20T11:10:17.333Z,69.54
2022-09-20T11:12:55.400Z,66.76
2022-09-20T11:15:31.488Z,66.72
2022-09-20T11:18:41.080Z,67.12
2022-09-20T11:21:23.556Z,66.95
2022-09-20T11:24:02.116Z,66.64
2022-09-20T11:26:53.385Z,67.43
2022-09-20T11:29:42.391Z,65.94
2022-09-20T11:32:16.279Z,64.92
2022-09-20T11:35:12.042Z,65.76
2022-09-20T11:37:43.799Z,65.63
2022-09-20T11:40:22.241Z,64.79
2022-09-20T11:42:52.915Z,66.69
2022-09-20T11:45:24.032Z,63.19
2022-09-20T11:48:00.210Z,64.43
2022-09-20T11:50:51.256Z,65.68
2022-09-20T11:53:24.552Z,65.45
2022-09-20T11:55:59.154Z,61.96
2022-09-20T11:58:27.657Z,64.39
2022-09-20T12:00:57.578Z,63.91
2022-09-20T12:03:28.787Z,63.53
2022-09-20T12:05:58.963Z,62.37
2022-09-20T12:08:34.023Z,63.73
2022-09-20T12:11:05.348Z,65.88
2022-09-20T12:13:36.576Z,64.03
2022-09-20T12:16:12.991Z,63.14
2022-09-20T12:18:55.041Z,64.68
2022-09-20T12:21:22.822Z,65.65
2022-09-20T12:23:52.881Z,64.83
2022-09-20T12:26:22.712Z,62.94
2022-09-20T12:28:50.818Z,61.64
2022-09-20T12:31:29.459Z,61.45
2022-09-20T12:34:11.907Z,63.45
2022-09-20T12:36:44.642Z,61.69
2022-09-20T12:39:11.724Z,62.00
2022-09-20T12:41:50.311Z,62.43
2022-09-20T12:44:30.556Z,63.05
2022-09-20T12:47:12.718Z,63.23
2022-09-20T12:50:03.931Z,64.17
2022-09-20T12:52:57.406Z,63.57
2022-09-20T12:55:38.627Z,60.17
2022-09-20T12:58:17.619Z,60.81
2022-09-20T13:00:59.461Z,61.58
2022-09-20T13:03:45.543Z,60.48
2022-09-20T13:06:23.038Z,61.39
2022-09-20T13:09:02.129Z,61.79
2022-09-20T13:11:47.536Z,62.19
2022-09-20T13:14:24.924Z,61.45
2022-09-20T13:16:56.338Z,63.07
2022-09-20T13:19:42.118Z,62.20
2022-09-20T13:22:20.387Z,62.86
2022-09-20T13:24:50.079Z,66.13
2022-09-20T13:27:32.880Z,65.21
2022-09-20T13:30:19.125Z,65.34
2022-09-20T13:32:47.024Z,65.30
2022-09-20T13:35:24.694Z,65.92
2022-09-20T13:37:55.879Z,64.74
2022-09-20T13:40:33.801Z,66.44
2022-09-20T13:43:22.481Z,64.61
2022-09-20T13:45:56.400Z,61.29
2022-09-20T13:48:28.985Z,61.47
2022-09-20T13:50:57.098Z,60.70
2022-09-20T13:53:42.376Z,62.16
2022-09-20T13:56:21.668Z,60.98
2022-09-20T13:58:50.661Z,64.56
2022-09-20T14:01:35.972Z,64.75
2022-09-20T14:04:02.978Z,65.50
2022-09-20T14:06:29.982Z,65.48
2022-09-20T14:08:58.985Z,65.50
2022-09-20T14:11:34.217Z,65.32
2022-09-20T14:14:05.595Z,65.32
2022-09-20T14:16:38.404Z,65.89
2022-09-20T14:19:08.398Z,65.82
2022-09-20T14:21:37.399Z,66.29
2022-09-20T14:24:08.544Z,64.90
2022-09-20T14:26:37.613Z,65.38
2022-09-20T14:29:43.297Z,65.28
2022-09-20T14:32:19.267Z,65.34
2022-09-20T14:34:52.455Z,65.90
2022-09-20T14:37:36.644Z,64.39
2022-09-20T14:40:17.002Z,65.97
2022-09-20T14:42:47.232Z,67.01
2022-09-20T14:45:31.477Z,66.96
2022-09-20T14:48:09.571Z,66.38
2022-09-20T14:50:46.531Z,66.23
2022-09-20T14:53:19.353Z,66.78
2022-09-20T14:56:13.112Z,67.17
2022-09-20T14:59:08.239Z,67.50
2022-09-20T15:01:37.730Z,67.13
2022-09-20T15:04:10.040Z,67.78
2022-09-20T15:06:40.298Z,66.63
2022-09-20T15:09:09.792Z,65.46
2022-09-20T15:11:36.893Z,65.47
2022-09-20T15:14:04.164Z,63.75
2022-09-20T15:16:31.362Z,64.65
2022-09-20T15:18:58.353Z,62.46
2022-09-20T15:21:25.540Z,64.38
2022-09-20T15:23:52.545Z,65.93
2022-09-20T15:26:21.535Z,64.16
2022-09-20T15:28:48.913Z,65.42
2022-09-20T15:31:17.415Z,65.83
2022-09-20T15:33:44.588Z,63.48
2022-09-20T15:36:12.085Z,63.35
2022-09-20T15:38:39.406Z,64.41
2022-09-20T15:41:06.547Z,64.76
2022-09-20T15:43:33.629Z,65.13
2022-09-20T15:46:17.598Z,65.43
2022-09-20T15:48:44.376Z,64.38
2022-09-20T15:51:12.318Z,64.17
2022-09-20T15:53:45.296Z,64.88
2022-09-20T15:56:23.198Z,65.01
2022-09-20T15:58:53.357Z,65.70
2022-09-20T16:01:20.277Z,66.80
2022-09-20T16:03:47.293Z,68.02
2022-09-20T16:06:14.662Z,68.58
2022-09-20T16:08:43.348Z,69.30
2022-09-20T16:11:13.925Z,70.08
2022-09-20T16:13:41.317Z,70.04
2022-09-20T16:16:13.304Z,70.45
2022-09-20T16:18:58.833Z,71.11
2022-09-20T16:21:25.675Z,70.84
2022-09-20T16:23:54.996Z,71.45
2022-09-20T16:26:24.013Z,69.86
2022-09-20T16:28:51.964Z,70.32
2022-09-20T16:31:34.802Z,69.81
2022-09-20T16:34:09.859Z,67.67
2022-09-20T16:36:36.701Z,67.67
2022-09-20T16:39:03.827Z,68.72
2022-09-20T16:41:32.530Z,68.00
2022-09-20T16:43:59.678Z,67.55
2022-09-20T16:46:27.700Z,67.84
2022-09-20T16:48:56.944Z,68.31
2022-09-20T16:51:26.207Z,67.92
2022-09-20T16:53:55.092Z,67.91
2022-09-20T16:56:27.102Z,69.14
2022-09-20T16:58:54.644Z,69.59
2022-09-20T17:01:22.074Z,69.85
2022-09-20T17:03:49.564Z,69.56
2022-09-20T17:06:17.246Z,69.87
2022-09-20T17:08:45.169Z,70.34
2022-09-20T17:11:15.747Z,71.22
2022-09-20T17:13:44.533Z,71.75
2022-09-20T17:16:14.593Z,71.36
2022-09-20T17:18:43.398Z,71.66
2022-09-20T17:21:17.469Z,71.55
2022-09-20T17:23:50.826Z,72.32
2022-09-20T17:26:23.233Z,73.01
2022-09-20T17:28:51.879Z,73.75
2022-09-20T17:31:23.564Z,73.70
2022-09-20T17:33:51.904Z,74.53
2022-09-20T17:36:21.563Z,74.90
2022-09-20T17:38:53.270Z,74.59
2022-09-20T17:41:20.832Z,74.77
2022-09-20T17:43:49.014Z,74.81
2022-09-20T17:46:23.060Z,75.03
2022-09-20T17:48:55.862Z,75.60
2022-09-20T17:51:29.112Z,76.04
2022-09-20T17:53:56.408Z,76.54
2022-09-20T17:56:24.787Z,76.61
2022-09-20T17:58:51.683Z,76.55
2022-09-20T18:01:22.882Z,76.90
2022-09-20T18:03:50.195Z,77.49
2022-09-20T18:06:50.379Z,77.25
2022-09-20T18:09:19.946Z,77.61
2022-09-20T18:11:50.144Z,77.92
2022-09-20T18:14:19.479Z,77.91
2022-09-20T18:16:47.345Z,78.16
2022-09-20T18:19:16.290Z,78.05
2022-09-20T18:21:43.755Z,78.21
2022-09-20T18:24:12.274Z,78.25
2022-09-20T18:26:39.851Z,78.61
2022-09-20T18:29:11.293Z,78.82
2022-09-20T18:31:39.988Z,78.77
2022-09-20T18:34:11.352Z,78.99
2022-09-20T18:36:39.672Z,78.98
2022-09-20T18:39:07.781Z,79.27
2022-09-20T18:41:37.290Z,79.40
2022-09-20T18:44:07.775Z,79.39
2022-09-20T18:46:38.173Z,79.32
2022-09-20T18:49:08.163Z,79.35
2022-09-20T18:51:39.385Z,79.41
2022-09-20T18:54:10.275Z,79.71
2022-09-20T18:56:42.272Z,79.70
2022-09-20T18:59:15.446Z,79.95
2022-09-20T19:01:54.650Z,80.04
2022-09-20T19:04:55.358Z,80.01
2022-09-20T19:07:24.727Z,79.89
2022-09-20T19:10:06.534Z,79.91
2022-09-20T19:12:48.630Z,80.12
2022-09-20T19:15:29.394Z,80.37
2022-09-20T19:18:02.234Z,80.46
2022-09-20T19:20:56.773Z,80.55
2022-09-20T19:23:39.350Z,80.51
2022-09-20T19:26:14.026Z,80.46
2022-09-20T19:28:44.348Z,80.60
2022-09-20T19:31:31.557Z,80.77
2022-09-20T19:34:01.219Z,80.89
2022-09-20T19:36:56.335Z,81.16
2022-09-20T19:39:27.289Z,81.04
2022-09-20T19:42:03.791Z,81.10
2022-09-20T19:44:48.547Z,81.19
2022-09-20T19:47:34.610Z,81.44
2022-09-20T19:50:37.916Z,81.59
2022-09-20T19:53:05.255Z,81.60
2022-09-20T19:55:36.040Z,81.37
2022-09-20T19:58:04.074Z,81.76
2022-09-20T20:00:31.841Z,81.99
2022-09-20T20:02:59.233Z,81.92
2022-09-20T20:05:27.918Z,81.73
2022-09-20T20:08:35.471Z,81.65
2022-09-20T20:11:17.461Z,82.06
2022-09-20T20:14:04.944Z,82.48
2022-09-20T20:16:47.732Z,82.72
2022-09-20T20:19:33.131Z,82.70
2022-09-20T20:22:09.820Z,82.91
2022-09-20T20:24:53.824Z,82.96
2022-09-20T20:27:21.292Z,82.90
2022-09-20T20:29:49.436Z,82.92
2022-09-20T20:32:16.754Z,83.09
2022-09-20T20:34:43.646Z,83.04
2022-09-20T20:37:10.551Z,83.02
2022-09-20T20:39:37.374Z,83.10
2022-09-20T20:42:06.315Z,83.33
2022-09-20T20:44:37.433Z,83.14
2022-09-20T20:47:06.274Z,82.90
2022-09-20T20:49:33.433Z,83.22
2022-09-20T20:52:04.921Z,83.20
2022-09-20T20:54:32.739Z,83.20
2022-09-20T20:56:59.817Z,83.05
2022-09-20T20:59:26.985Z,83.13
2022-09-20T21:01:54.066Z,83.49
2022-09-20T21:04:21.829Z,83.43
2022-09-20T21:06:50.535Z,83.65
2022-09-20T21:09:17.433Z,83.83
2022-09-20T21:11:44.617Z,83.90
2022-09-20T21:14:13.033Z,84.08
2022-09-20T21:16:45.747Z,84.14
2022-09-20T21:19:15.810Z,83.99
2022-09-20T21:21:45.732Z,84.02
2022-09-20T21:24:17.420Z,84.29
2022-09-20T21:26:45.842Z,84.28
2022-09-20T21:29:15.309Z,84.40
2022-09-20T21:31:44.550Z,84.45
2022-09-20T21:34:13.294Z,84.73
2022-09-20T21:36:44.161Z,84.72
2022-09-20T21:39:11.490Z,84.74
2022-09-20T21:41:39.521Z,84.68
2022-09-20T21:44:08.057Z,84.81
2022-09-20T21:46:40.426Z,84.71
2022-09-20T21:49:10.156Z,84.59
2022-09-20T21:51:38.353Z,84.83
2022-09-20T21:54:05.793Z,84.72
2022-09-20T21:56:35.704Z,84.65
2022-09-20T21:59:04.038Z,84.63
2022-09-20T22:01:36.847Z,84.88
2022-09-20T22:04:11.939Z,84.89
2022-09-20T22:06:41.404Z,85.02
2022-09-20T22:09:14.107Z,84.90
2022-09-20T22:11:46.401Z,85.07
2022-09-20T22:14:14.863Z,85.00
2022-09-20T22:16:43.513Z,84.88
2022-09-20T22:19:12.397Z,85.02
2022-09-20T22:21:41.860Z,85.04
2022-09-20T22:24:10.701Z,85.04
2022-09-20T22:26:43.088Z,85.20
2022-09-20T22:29:10.373Z,85.36
2022-09-20T22:31:44.852Z,85.47
2022-09-20T22:34:15.119Z,85.50
2022-09-20T22:36:42.376Z,85.35
2022-09-20T22:39:11.520Z,85.31
2022-09-20T22:41:39.647Z,85.25
2022-09-20T22:44:07.002Z,85.46
2022-09-20T22:46:35.171Z,85.49
2022-09-20T22:49:05.758Z,85.64
2022-09-20T22:51:33.711Z,85.51
2022-09-20T22:54:09.996Z,85.14
2022-09-20T22:56:38.729Z,85.00
2022-09-20T22:59:07.837Z,85.03
2022-09-20T23:01:43.000Z,85.11
2022-09-20T23:04:15.743Z,84.94
2022-09-20T23:06:45.096Z,84.89
2022-09-20T23:09:13.678Z,85.02
2022-09-20T23:11:42.853Z,84.84
2022-09-20T23:14:12.467Z,84.71
2022-09-20T23:16:40.268Z,84.58
2022-09-20T23:19:08.481Z,84.40
2022-09-20T23:21:38.385Z,84.46
2022-09-20T23:24:07.954Z,84.44
2022-09-20T23:26:36.634Z,84.27
2022-09-20T23:29:06.511Z,84.38
2022-09-20T23:31:36.665Z,84.54
2022-09-20T23:34:06.316Z,84.68
2022-09-20T23:36:35.485Z,84.59
2022-09-20T23:39:02.529Z,84.46
2022-09-20T23:41:29.957Z,84.47
2022-09-20T23:43:57.390Z,84.45
2022-09-20T23:46:26.137Z,84.37
2022-09-20T23:48:53.334Z,84.34
2022-09-20T23:51:25.405Z,84.38
2022-09-20T23:53:53.435Z,84.53
2022-09-20T23:56:21.596Z,84.51
2022-09-20T23:58:49.054Z,84.61
